Time;durP1;ratioP1;P1;durP2;ratioP2;P2;SDS_P1;SDS_P2;PMS_P1;PMS_P2;Temp;Humidity;BMP_temperature;BMP_pressure;BME280_temperature;BME280_humidity;BME280_pressure;Samples;Min_cycle;Max_cycle;Signal;HPM_P1;HPM_P2
2021/12/01 00:00:46;;;;;;;38.17;16.02;;;;;;;8.74;100.00;100141.91;5076313;28;20112;-45
2021/12/01 00:03:12;;;;;;;37.50;15.77;;;;;;;8.75;100.00;100143.53;5074940;28;20097;-48
2021/12/01 00:05:37;;;;;;;32.50;15.98;;;;;;;8.75;100.00;100129.41;5074388;28;20020;-50
2021/12/01 00:08:03;;;;;;;29.73;12.45;;;;;;;8.76;100.00;100110.59;5075967;28;20176;-47
2021/12/01 00:10:34;;;;;;;29.23;13.27;;;;;;;8.74;100.00;100112.63;5076095;28;20482;-45
2021/12/01 00:12:59;;;;;;;23.92;11.05;;;;;;;8.72;100.00;100097.78;5056613;28;20024;-47
2021/12/01 00:15:24;;;;;;;25.70;10.68;;;;;;;8.71;100.00;100093.47;5069737;28;20039;-49
2021/12/01 00:17:50;;;;;;;24.05;11.10;;;;;;;8.73;100.00;100075.50;5071942;28;20384;-49
2021/12/01 00:20:17;;;;;;;24.88;11.30;;;;;;;8.72;100.00;100068.50;5070600;28;20044;-46
2021/12/01 00:22:44;;;;;;;21.40;9.70;;;;;;;8.72;100.00;100058.72;5077062;28;20024;-44
2021/12/01 00:25:11;;;;;;;31.08;11.38;;;;;;;8.74;100.00;100058.50;5054273;28;20535;-45
2021/12/01 00:27:37;;;;;;;20.77;9.45;;;;;;;8.72;100.00;100053.38;5076157;28;20471;-46
2021/12/01 00:30:04;;;;;;;23.88;10.18;;;;;;;8.71;100.00;100034.91;5076533;28;20036;-49
2021/12/01 00:32:30;;;;;;;22.17;9.65;;;;;;;8.74;100.00;100032.75;5068781;28;20024;-45
2021/12/01 00:34:58;;;;;;;20.50;9.05;;;;;;;8.74;100.00;100031.91;5075394;28;20031;-47
2021/12/01 00:37:23;;;;;;;20.02;9.70;;;;;;;8.75;100.00;100026.41;5075945;28;20027;-47
2021/12/01 00:39:49;;;;;;;25.48;11.65;;;;;;;8.75;100.00;100015.75;5070407;28;20130;-45
2021/12/01 00:42:14;;;;;;;18.95;8.68;;;;;;;8.78;100.00;99998.63;5068130;28;20051;-48
2021/12/01 00:44:46;;;;;;;22.70;9.40;;;;;;;8.78;100.00;99998.63;5073483;28;20689;-46
2021/12/01 00:47:13;;;;;;;16.35;8.13;;;;;;;8.78;100.00;100003.94;5068337;28;20016;-47
2021/12/01 00:49:39;;;;;;;19.67;8.85;;;;;;;8.75;100.00;99990.97;5074379;28;20074;-48
2021/12/01 00:52:04;;;;;;;24.05;10.18;;;;;;;8.76;100.00;99995.31;5076779;28;20032;-48
2021/12/01 00:54:30;;;;;;;22.17;9.10;;;;;;;8.77;100.00;99995.13;5077282;28;20476;-48
2021/12/01 00:56:56;;;;;;;19.98;8.70;;;;;;;8.76;100.00;99984.66;5078879;28;20032;-49
2021/12/01 00:59:21;;;;;;;18.38;8.18;;;;;;;8.70;100.00;99990.66;5072359;28;20028;-47
2021/12/01 01:01:47;;;;;;;16.25;8.48;;;;;;;8.73;100.00;99985.81;5060804;28;20130;-48
2021/12/01 01:04:14;;;;;;;18.85;8.23;;;;;;;8.74;100.00;99973.31;5064216;28;20567;-48
2021/12/01 01:06:39;;;;;;;17.77;8.02;;;;;;;8.75;100.00;99970.50;5073989;28;20812;-47
2021/12/01 01:09:07;;;;;;;16.60;6.68;;;;;;;8.71;100.00;99960.38;5077586;28;20027;-48
2021/12/01 01:17:18;;;;;;;15.05;6.95;;;;;;;8.65;100.00;99942.41;5077253;28;20723;-48
2021/12/01 01:19:43;;;;;;;17.35;8.45;;;;;;;8.66;100.00;99936.94;5075065;28;20020;-45
2021/12/01 01:22:09;;;;;;;16.60;8.18;;;;;;;8.67;100.00;99935.94;5056907;28;20030;-47
2021/12/01 01:24:34;;;;;;;16.25;7.32;;;;;;;8.65;100.00;99923.78;5057758;28;20149;-46
2021/12/01 01:27:00;;;;;;;20.25;7.78;;;;;;;8.66;100.00;99941.44;5060063;28;20533;-48
2021/12/01 01:29:26;;;;;;;14.50;7.60;;;;;;;8.60;100.00;99921.63;5076036;28;20031;-45
2021/12/01 01:31:54;;;;;;;15.73;7.35;;;;;;;8.62;100.00;99924.13;5077990;28;20024;-46
2021/12/01 01:34:20;;;;;;;19.30;7.95;;;;;;;8.61;100.00;99917.16;5075437;28;20056;-50
2021/12/01 01:36:45;;;;;;;16.63;8.48;;;;;;;8.54;100.00;99914.34;5077322;28;20678;-48
2021/12/01 01:39:11;;;;;;;16.40;8.73;;;;;;;8.59;100.00;99912.81;5059128;28;20029;-46
2021/12/01 01:41:36;;;;;;;19.98;8.93;;;;;;;8.55;100.00;99910.66;5061343;28;20484;-44
2021/12/01 01:44:01;;;;;;;22.40;9.65;;;;;;;8.52;100.00;99903.03;5058914;28;20060;-44
2021/12/01 01:46:36;;;;;;;18.95;9.07;;;;;;;8.47;100.00;99886.75;5061115;28;20444;-45
2021/12/01 01:49:09;;;;;;;21.65;11.27;;;;;;;8.45;100.00;99894.88;5073316;28;20056;-45
2021/12/01 01:51:35;;;;;;;20.42;9.70;;;;;;;8.42;100.00;99884.59;5075708;28;20463;-45
2021/12/01 01:54:01;;;;;;;26.20;13.93;;;;;;;8.36;100.00;99886.06;5078171;28;20031;-46
2021/12/01 01:56:27;;;;;;;26.35;14.40;;;;;;;8.34;100.00;99881.94;5078483;28;20304;-45
2021/12/01 01:58:54;;;;;;;30.00;13.57;;;;;;;8.33;100.00;99870.47;5078438;28;20074;-46
2021/12/01 02:04:05;;;;;;;28.48;15.55;;;;;;;8.35;100.00;99862.28;5062623;28;20039;-48
2021/12/01 02:06:31;;;;;;;28.15;13.20;;;;;;;8.30;100.00;99860.16;5049750;28;20325;-46
2021/12/01 02:08:58;;;;;;;30.42;14.32;;;;;;;8.26;100.00;99844.72;5077969;28;20027;-48
2021/12/01 02:11:25;;;;;;;25.10;12.90;;;;;;;8.23;100.00;99843.22;5078934;28;20024;-45
2021/12/01 02:13:51;;;;;;;22.05;13.07;;;;;;;8.20;100.00;99843.56;5059025;28;20039;-46
2021/12/01 02:16:19;;;;;;;24.90;12.68;;;;;;;8.18;100.00;99840.22;5077030;28;20521;-46
2021/12/01 02:18:44;;;;;;;32.22;15.02;;;;;;;8.16;100.00;99831.59;5076750;28;20024;-45
2021/12/01 02:21:26;;;;;;;30.27;13.63;;;;;;;8.12;100.00;99811.69;5076718;28;20024;-47
2021/12/01 02:23:52;;;;;;;26.58;11.65;;;;;;;8.12;100.00;99820.47;5069937;28;20071;-49
2021/12/01 02:26:20;;;;;;;22.05;11.27;;;;;;;8.10;100.00;99806.53;5061574;28;20060;-45
2021/12/01 02:28:47;;;;;;;19.20;10.32;;;;;;;8.14;100.00;99810.50;5057642;28;20044;-49
2021/12/01 02:31:14;;;;;;;16.55;10.15;;;;;;;8.12;100.00;99780.59;5065416;28;20398;-50
2021/12/01 02:33:40;;;;;;;15.48;9.13;;;;;;;8.08;100.00;99789.91;5057970;28;20028;-48
2021/12/01 02:36:09;;;;;;;18.17;10.60;;;;;;;8.09;100.00;99767.63;5077316;28;20054;-49
2021/12/01 02:38:37;;;;;;;18.73;9.63;;;;;;;8.05;100.00;99757.53;5078184;28;21028;-47
2021/12/01 02:41:02;;;;;;;16.77;8.45;;;;;;;8.01;100.00;99757.00;5076972;28;20080;-47
2021/12/01 02:43:29;;;;;;;16.88;8.27;;;;;;;7.98;100.00;99750.22;5077041;28;20463;-46
2021/12/01 02:45:54;;;;;;;18.88;7.85;;;;;;;7.96;100.00;99736.28;5058803;28;20327;-46
2021/12/01 02:48:22;;;;;;;16.65;9.02;;;;;;;7.90;100.00;99736.94;5073660;28;20439;-48
2021/12/01 02:50:48;;;;;;;18.63;7.78;;;;;;;7.92;100.00;99728.81;5063886;28;20431;-47
2021/12/01 02:53:14;;;;;;;19.70;10.48;;;;;;;7.89;100.00;99715.84;5075088;28;20422;-49
2021/12/01 02:55:53;;;;;;;12.23;7.43;;;;;;;7.90;100.00;99714.88;5077304;28;20195;-48
2021/12/01 02:58:19;;;;;;;17.05;8.82;;;;;;;7.87;100.00;99725.84;5076532;28;20032;-47
2021/12/01 03:00:46;;;;;;;14.95;7.93;;;;;;;7.80;100.00;99723.84;5078686;28;20168;-46
2021/12/01 03:03:12;;;;;;;17.20;7.85;;;;;;;7.80;100.00;99705.25;5075611;28;20055;-47
2021/12/01 03:05:38;;;;;;;16.40;7.75;;;;;;;7.79;100.00;99711.56;5074258;28;20081;-45
2021/12/01 03:08:04;;;;;;;16.75;8.63;;;;;;;7.79;100.00;99708.91;5051712;28;20214;-45
2021/12/01 03:10:29;;;;;;;15.98;9.98;;;;;;;7.74;100.00;99695.31;5067856;28;20140;-48
2021/12/01 03:12:55;;;;;;;14.32;7.90;;;;;;;7.76;100.00;99676.53;5076125;28;20059;-46
2021/12/01 03:15:21;;;;;;;13.05;8.13;;;;;;;7.70;100.00;99675.38;5076039;28;20058;-47
2021/12/01 03:17:46;;;;;;;17.83;8.32;;;;;;;7.72;100.00;99673.41;5075048;28;20496;-48
2021/12/01 03:20:14;;;;;;;14.60;7.80;;;;;;;7.73;100.00;99687.50;5075893;28;20099;-45
2021/12/01 03:22:41;;;;;;;14.73;8.95;;;;;;;7.71;100.00;99676.22;5077522;28;20126;-45
2021/12/01 03:25:14;;;;;;;16.20;8.80;;;;;;;7.65;100.00;99645.84;5077617;28;20024;-48
2021/12/01 03:27:40;;;;;;;15.50;8.95;;;;;;;7.66;100.00;99655.47;5068520;28;20121;-47
2021/12/01 03:30:07;;;;;;;17.33;9.00;;;;;;;7.63;100.00;99631.91;5059660;28;20040;-48
2021/12/01 03:32:33;;;;;;;16.05;9.25;;;;;;;7.64;100.00;99662.78;5060943;28;20024;-45
2021/12/01 03:34:59;;;;;;;19.27;10.15;;;;;;;7.62;100.00;99635.53;5077912;28;20103;-46
2021/12/01 03:37:24;;;;;;;18.65;10.20;;;;;;;7.59;100.00;99641.22;5079368;28;20028;-48
2021/12/01 03:39:50;;;;;;;17.25;8.23;;;;;;;7.60;100.00;99621.59;5079462;28;20019;-45
2021/12/01 03:42:15;;;;;;;14.20;7.88;;;;;;;7.60;100.00;99614.47;5060783;28;20711;-46
2021/12/01 03:44:40;;;;;;;16.92;9.57;;;;;;;7.60;100.00;99617.13;5079909;28;20442;-47
2021/12/01 03:47:06;;;;;;;13.43;7.38;;;;;;;7.64;100.00;99620.28;5079309;28;20040;-48
2021/12/01 03:49:31;;;;;;;16.42;8.95;;;;;;;7.64;100.00;99613.13;5066879;28;20705;-46
2021/12/01 03:51:56;;;;;;;13.90;7.35;;;;;;;7.62;100.00;99601.00;5067499;28;20028;-46
2021/12/01 03:54:21;;;;;;;18.38;8.70;;;;;;;7.62;100.00;99616.94;5059306;28;20039;-45
2021/12/01 03:56:47;;;;;;;16.33;8.63;;;;;;;7.67;100.00;99598.66;5077914;28;20491;-49
2021/12/01 03:59:13;;;;;;;23.98;8.73;;;;;;;7.64;100.00;99564.47;5068924;28;20092;-48
2021/12/01 04:01:38;;;;;;;17.90;9.30;;;;;;;7.57;100.00;99547.56;5072216;28;20085;-44
2021/12/01 04:04:03;;;;;;;14.25;7.63;;;;;;;7.59;100.00;99561.50;5075689;28;20162;-48
2021/12/01 04:06:29;;;;;;;14.23;8.10;;;;;;;7.63;100.00;99552.19;5070576;28;20040;-45
2021/12/01 04:08:55;;;;;;;15.93;7.53;;;;;;;7.65;100.00;99553.69;5072864;28;20023;-45
2021/12/01 04:11:21;;;;;;;13.73;7.05;;;;;;;7.65;100.00;99540.41;5068366;28;20024;-46
2021/12/01 04:13:46;;;;;;;19.63;9.35;;;;;;;7.65;100.00;99542.19;5064454;28;20017;-47
2021/12/01 04:16:12;;;;;;;15.88;7.97;;;;;;;7.65;100.00;99532.41;5077125;28;20746;-46
2021/12/01 04:18:39;;;;;;;14.05;7.50;;;;;;;7.60;100.00;99505.53;5078179;28;20032;-45
2021/12/01 04:21:04;;;;;;;15.73;8.32;;;;;;;7.62;100.00;99510.66;5077526;28;20020;-48
2021/12/01 04:23:30;;;;;;;14.48;8.30;;;;;;;7.63;100.00;99513.16;5078870;28;20144;-47
2021/12/01 04:25:56;;;;;;;18.50;8.70;;;;;;;7.63;100.00;99499.84;5078804;28;20090;-48
2021/12/01 04:28:21;;;;;;;17.35;9.35;;;;;;;7.63;100.00;99505.16;5077748;28;20030;-49
2021/12/01 04:30:46;;;;;;;18.05;10.77;;;;;;;7.66;100.00;99486.22;5073388;28;20012;-47
2021/12/01 04:33:12;;;;;;;15.00;9.18;;;;;;;7.65;100.00;99473.97;5056986;28;20043;-50
2021/12/01 04:35:37;;;;;;;19.10;10.18;;;;;;;7.63;100.00;99477.78;5067095;28;20063;-46
2021/12/01 04:38:03;;;;;;;19.10;10.15;;;;;;;7.57;100.00;99470.50;5077699;28;20035;-47
2021/12/01 04:40:28;;;;;;;20.35;11.73;;;;;;;7.56;100.00;99461.72;5078157;28;20016;-48
2021/12/01 04:42:54;;;;;;;21.20;10.82;;;;;;;7.59;100.00;99449.94;5059456;28;20072;-46
2021/12/01 04:45:21;;;;;;;23.90;11.20;;;;;;;7.57;100.00;99439.47;5075603;28;20031;-47
2021/12/01 04:47:53;;;;;;;17.83;11.10;;;;;;;7.54;100.00;99425.72;5055461;28;20024;-49
2021/12/01 04:50:22;;;;;;;18.98;10.90;;;;;;;7.49;100.00;99417.44;5074033;28;20146;-48
2021/12/01 04:52:48;;;;;;;22.17;12.18;;;;;;;7.41;100.00;99418.31;5071463;28;20523;-46
2021/12/01 04:55:13;;;;;;;23.38;11.65;;;;;;;7.34;100.00;99420.03;5070901;28;20039;-46
2021/12/01 04:57:45;;;;;;;21.40;9.75;;;;;;;7.28;100.00;99425.03;5069994;28;20028;-49
2021/12/01 05:00:15;;;;;;;18.33;9.52;;;;;;;7.23;100.00;99405.28;5074185;28;20076;-50
2021/12/01 05:02:40;;;;;;;18.83;9.45;;;;;;;7.19;100.00;99414.63;5076784;28;20371;-48
2021/12/01 05:05:06;;;;;;;22.48;11.75;;;;;;;7.14;100.00;99416.97;5078689;28;20031;-48
2021/12/01 05:07:32;;;;;;;21.42;9.73;;;;;;;7.10;100.00;99396.06;5078104;28;20088;-46
2021/12/01 05:09:57;;;;;;;25.13;12.00;;;;;;;7.06;100.00;99384.16;5067693;28;20032;-46
2021/12/01 05:12:23;;;;;;;20.40;10.70;;;;;;;7.05;100.00;99393.13;5057727;28;20504;-47
2021/12/01 05:14:48;;;;;;;26.42;10.27;;;;;;;7.08;100.00;99394.63;5062650;28;20111;-44
2021/12/01 05:17:14;;;;;;;21.63;10.57;;;;;;;7.05;100.00;99393.13;5060884;28;20032;-46
2021/12/01 05:19:39;;;;;;;19.13;9.10;;;;;;;7.04;100.00;99386.19;5075962;28;20050;-48
2021/12/01 05:22:05;;;;;;;18.13;9.38;;;;;;;7.02;100.00;99376.72;5076703;28;20053;-47
2021/12/01 05:24:31;;;;;;;18.23;9.13;;;;;;;7.01;100.00;99383.88;5073865;28;20120;-45
2021/12/01 05:26:57;;;;;;;17.50;9.10;;;;;;;7.02;100.00;99358.97;5076425;28;20020;-47
2021/12/01 05:29:23;;;;;;;18.00;8.77;;;;;;;6.97;100.00;99352.53;5077168;28;20535;-46
2021/12/01 05:31:49;;;;;;;16.75;8.00;;;;;;;7.00;100.00;99366.28;5078557;28;21043;-48
2021/12/01 05:34:14;;;;;;;18.77;9.15;;;;;;;6.96;100.00;99345.56;5076075;28;20039;-46
2021/12/01 05:36:40;;;;;;;15.82;7.57;;;;;;;6.95;100.00;99351.88;5074114;28;20065;-47
2021/12/01 05:39:05;;;;;;;15.73;8.77;;;;;;;6.97;100.00;99350.69;5074219;28;20100;-46
2021/12/01 05:41:31;;;;;;;15.15;7.55;;;;;;;6.91;100.00;99330.19;5074134;28;20273;-46
2021/12/01 05:43:56;;;;;;;14.48;6.45;;;;;;;6.90;100.00;99318.72;5076817;28;20068;-44
2021/12/01 05:46:21;;;;;;;12.23;7.10;;;;;;;6.96;100.00;99330.47;5072971;28;20028;-46
2021/12/01 05:48:51;;;;;;;13.65;6.50;;;;;;;6.95;100.00;99343.91;5076480;28;20020;-46
2021/12/01 05:51:16;;;;;;;11.60;5.55;;;;;;;6.93;100.00;99320.22;5075452;28;20423;-47
2021/12/01 05:53:42;;;;;;;10.65;6.10;;;;;;;6.92;100.00;99315.88;5059484;28;20066;-46
2021/12/01 05:56:07;;;;;;;9.15;5.60;;;;;;;6.92;100.00;99299.97;5076220;28;20421;-48
2021/12/01 05:58:32;;;;;;;12.55;6.15;;;;;;;6.90;100.00;99300.13;5077454;28;20093;-45
2021/12/01 06:00:57;;;;;;;11.10;4.25;;;;;;;6.92;100.00;99292.00;5077761;28;20391;-46
2021/12/01 06:03:23;;;;;;;14.02;5.05;;;;;;;6.90;100.00;99284.22;5057091;28;20099;-48
2021/12/01 06:05:48;;;;;;;16.38;6.85;;;;;;;6.88;100.00;99274.78;5075929;28;20975;-46
2021/12/01 06:08:14;;;;;;;12.10;5.88;;;;;;;6.91;100.00;99279.75;5060758;28;20032;-46
2021/12/01 06:10:41;;;;;;;8.07;5.05;;;;;;;6.92;100.00;99268.13;5061781;28;20024;-45
2021/12/01 06:13:07;;;;;;;10.43;5.70;;;;;;;6.92;100.00;99260.16;5076328;28;20122;-45
2021/12/01 06:15:32;;;;;;;8.82;5.13;;;;;;;6.90;100.00;99254.19;5075458;28;20376;-45
2021/12/01 06:17:58;;;;;;;9.25;5.45;;;;;;;6.89;100.00;99253.38;5065652;28;20027;-49
2021/12/01 06:20:24;;;;;;;10.80;4.95;;;;;;;6.90;100.00;99236.44;5076663;28;20054;-47
2021/12/01 06:22:50;;;;;;;8.02;4.78;;;;;;;6.94;100.00;99258.16;5059282;28;20066;-45
2021/12/01 06:25:16;;;;;;;10.35;5.60;;;;;;;6.90;100.00;99248.91;5076364;28;20043;-45
2021/12/01 06:27:42;;;;;;;10.48;5.25;;;;;;;6.93;100.00;99243.25;5054983;28;20713;-46
2021/12/01 06:30:08;;;;;;;8.65;5.22;;;;;;;6.92;100.00;99230.97;5056386;28;20067;-48
2021/12/01 06:32:34;;;;;;;9.18;5.30;;;;;;;6.91;100.00;99239.94;5058491;28;20555;-48
2021/12/01 06:34:59;;;;;;;10.05;7.13;;;;;;;6.81;100.00;99218.13;5064727;28;20020;-47
2021/12/01 06:37:25;;;;;;;11.05;6.07;;;;;;;6.94;100.00;99234.25;5078998;28;20066;-48
2021/12/01 06:39:51;;;;;;;11.95;6.13;;;;;;;6.93;100.00;99229.97;5081035;28;20028;-47
2021/12/01 06:42:17;;;;;;;11.52;5.15;;;;;;;6.95;100.00;99233.28;5057710;28;20046;-46
2021/12/01 06:44:42;;;;;;;10.80;6.00;;;;;;;6.93;100.00;99232.63;5080810;28;20103;-46
2021/12/01 06:47:08;;;;;;;10.02;5.55;;;;;;;7.00;100.00;99206.19;5071479;28;20472;-44
2021/12/01 06:49:33;;;;;;;11.43;5.97;;;;;;;7.00;100.00;99217.63;5059822;28;20143;-44
2021/12/01 06:51:59;;;;;;;10.82;6.28;;;;;;;6.98;100.00;99198.41;5059883;28;20048;-49
2021/12/01 06:54:24;;;;;;;13.07;5.47;;;;;;;7.00;100.00;99214.16;5061526;28;20025;-45
2021/12/01 06:56:50;;;;;;;10.82;6.55;;;;;;;7.01;100.00;99202.53;5065600;28;20494;-44
2021/12/01 06:59:15;;;;;;;15.30;7.20;;;;;;;7.01;100.00;99198.06;5077913;28;20112;-45
2021/12/01 07:01:41;;;;;;;12.77;6.90;;;;;;;7.03;100.00;99195.22;5075178;28;20065;-46
2021/12/01 07:04:06;;;;;;;10.50;6.10;;;;;;;7.06;100.00;99190.38;5077850;28;20032;-47
2021/12/01 07:06:32;;;;;;;10.75;6.43;;;;;;;7.09;100.00;99192.69;5070169;28;20032;-47
2021/12/01 07:09:00;;;;;;;9.82;5.60;;;;;;;7.13;100.00;99197.63;5079049;28;20032;-49
2021/12/01 07:11:26;;;;;;;13.85;8.02;;;;;;;7.11;100.00;99195.13;5077629;28;20057;-47
2021/12/01 07:13:52;;;;;;;13.75;7.82;;;;;;;7.13;100.00;99187.00;5067929;28;20047;-46
2021/12/01 07:16:17;;;;;;;15.35;8.13;;;;;;;7.19;100.00;99189.75;5066708;28;20105;-48
2021/12/01 07:18:42;;;;;;;16.95;8.23;;;;;;;7.23;100.00;99190.22;5062181;28;20111;-47
2021/12/01 07:21:08;;;;;;;19.90;8.18;;;;;;;7.21;100.00;99195.75;5066726;28;20026;-49
2021/12/01 07:23:33;;;;;;;17.20;8.32;;;;;;;7.22;100.00;99194.72;5080678;28;20475;-48
2021/12/01 07:26:00;;;;;;;15.80;7.68;;;;;;;7.24;100.00;99189.22;5079960;28;20067;-49
2021/12/01 07:28:25;;;;;;;15.98;9.00;;;;;;;7.26;100.00;99197.84;5080349;28;20165;-47
2021/12/01 07:30:51;;;;;;;17.08;7.93;;;;;;;7.24;100.00;99183.91;5079917;28;20077;-46
2021/12/01 07:33:16;;;;;;;17.13;8.93;;;;;;;7.26;100.00;99187.22;5077032;28;20090;-50
2021/12/01 07:35:41;;;;;;;17.13;8.23;;;;;;;7.29;100.00;99192.97;5055278;28;20028;-45
2021/12/01 07:38:06;;;;;;;16.67;8.00;;;;;;;7.31;100.00;99171.56;5078974;28;20123;-48
2021/12/01 07:40:32;;;;;;;23.08;8.93;;;;;;;7.29;100.00;99157.66;5070164;28;20060;-47
2021/12/01 07:42:57;;;;;;;17.52;8.38;;;;;;;7.33;100.00;99148.31;5064001;28;20448;-45
2021/12/01 07:45:22;;;;;;;17.52;9.18;;;;;;;7.28;100.00;99146.22;5067751;28;20069;-46
2021/12/01 07:47:48;;;;;;;18.45;9.88;;;;;;;7.36;100.00;99155.09;5074595;28;20087;-47
2021/12/01 07:50:13;;;;;;;18.90;9.32;;;;;;;7.40;100.00;99159.03;5075916;28;20719;-47
2021/12/01 07:52:39;;;;;;;20.25;9.60;;;;;;;7.41;100.00;99148.22;5077684;28;20028;-50
2021/12/01 07:55:06;;;;;;;27.77;12.75;;;;;;;7.42;100.00;99135.78;5070296;28;20310;-45
2021/12/01 07:57:31;;;;;;;18.70;9.43;;;;;;;7.44;100.00;99136.41;5059497;28;20024;-44
2021/12/01 07:59:56;;;;;;;22.35;11.70;;;;;;;7.41;100.00;99137.59;5060761;28;20048;-48
2021/12/01 08:02:22;;;;;;;19.00;9.95;;;;;;;7.50;100.00;99142.81;5059895;28;20066;-47
2021/12/01 08:04:47;;;;;;;26.25;10.73;;;;;;;7.50;100.00;99140.97;5060904;28;20079;-46
2021/12/01 08:07:13;;;;;;;23.23;10.93;;;;;;;7.55;100.00;99135.13;5066486;28;20027;-46
2021/12/01 08:09:38;;;;;;;23.05;12.65;;;;;;;7.49;100.00;99131.38;5060542;28;20089;-46
2021/12/01 08:12:04;;;;;;;25.63;12.23;;;;;;;7.54;100.00;99138.81;5077906;28;20914;-46
2021/12/01 08:14:29;;;;;;;22.20;11.90;;;;;;;7.51;100.00;99131.19;5077500;28;20658;-45
2021/12/01 08:16:54;;;;;;;25.80;12.70;;;;;;;7.56;100.00;99142.09;5075320;28;20024;-46
2021/12/01 08:19:21;;;;;;;27.10;11.35;;;;;;;7.56;100.00;99137.59;5077329;28;20624;-45
2021/12/01 08:21:49;;;;;;;29.50;13.05;;;;;;;7.53;100.00;99124.69;5078189;28;20346;-47
2021/12/01 08:24:15;;;;;;;34.85;14.20;;;;;;;7.54;100.00;99120.22;5077611;28;20048;-48
2021/12/01 08:26:42;;;;;;;31.45;15.57;;;;;;;7.56;100.00;99123.50;5078251;28;20024;-44
2021/12/01 08:29:09;;;;;;;34.08;14.80;;;;;;;7.51;100.00;99120.56;5077860;28;20115;-49
2021/12/01 08:31:34;;;;;;;29.75;13.45;;;;;;;7.51;100.00;99109.94;5078023;28;20126;-44
2021/12/01 08:34:00;;;;;;;36.88;16.40;;;;;;;7.56;100.00;99119.00;5076431;28;20421;-47
2021/12/01 08:36:26;;;;;;;36.90;17.48;;;;;;;7.57;100.00;99106.53;5072093;28;20376;-46
2021/12/01 08:38:51;;;;;;;31.83;15.20;;;;;;;7.56;100.00;99104.91;5077880;28;20078;-49
2021/12/01 08:41:16;;;;;;;35.05;15.75;;;;;;;7.58;100.00;99102.88;5075938;28;20039;-44
2021/12/01 08:43:42;;;;;;;30.20;14.77;;;;;;;7.60;100.00;99103.50;5077442;28;20032;-46
2021/12/01 08:46:08;;;;;;;28.33;14.10;;;;;;;7.64;100.00;99094.19;5075279;28;20016;-47
2021/12/01 08:48:35;;;;;;;29.27;14.13;;;;;;;7.65;100.00;99095.81;5077189;28;20035;-45
2021/12/01 08:51:02;;;;;;;24.77;14.30;;;;;;;7.68;100.00;99095.44;5076603;28;20160;-47
2021/12/01 08:53:29;;;;;;;24.52;12.20;;;;;;;7.70;100.00;99088.09;5078882;28;20171;-48
2021/12/01 08:55:57;;;;;;;27.65;12.98;;;;;;;7.71;100.00;99096.94;5069976;28;20147;-49
2021/12/01 08:58:22;;;;;;;24.70;13.80;;;;;;;7.67;100.00;99085.81;5069703;28;20464;-45
2021/12/01 09:00:48;;;;;;;23.65;11.38;;;;;;;7.74;100.00;99097.38;5070792;28;20009;-50
2021/12/01 09:03:16;;;;;;;23.70;12.52;;;;;;;7.77;100.00;99101.47;5058341;28;20028;-49
2021/12/01 09:05:44;;;;;;;20.50;10.63;;;;;;;7.74;100.00;99101.84;5064897;28;20190;-48
2021/12/01 09:08:10;;;;;;;22.85;11.30;;;;;;;7.75;100.00;99098.19;5075593;28;20028;-47
2021/12/01 09:10:35;;;;;;;26.65;12.02;;;;;;;7.72;100.00;99088.78;5075196;28;20298;-49
2021/12/01 09:13:03;;;;;;;28.13;13.55;;;;;;;7.75;100.00;99114.13;5074637;28;20515;-45
2021/12/01 09:15:28;;;;;;;22.95;11.80;;;;;;;7.71;100.00;99100.41;5076282;28;20386;-48
2021/12/01 09:17:54;;;;;;;17.30;10.43;;;;;;;7.72;100.00;99096.75;5073319;28;20024;-45
2021/12/01 09:20:20;;;;;;;22.63;12.75;;;;;;;7.74;100.00;99108.00;5069637;28;20535;-45
2021/12/01 09:22:45;;;;;;;25.20;12.48;;;;;;;7.77;100.00;99128.91;5076084;28;20452;-47
2021/12/01 09:25:11;;;;;;;27.83;12.13;;;;;;;7.78;100.00;99127.06;5075842;28;20028;-45
2021/12/01 09:27:37;;;;;;;27.45;11.95;;;;;;;7.77;100.00;99128.06;5073940;28;20391;-44
2021/12/01 09:30:05;;;;;;;24.80;12.23;;;;;;;7.74;100.00;99131.91;5075234;28;20397;-46
2021/12/01 09:32:33;;;;;;;28.55;12.57;;;;;;;7.72;100.00;99125.97;5074608;28;20024;-49
2021/12/01 09:34:59;;;;;;;24.83;12.20;;;;;;;7.72;100.00;99135.75;5075050;28;20349;-45
2021/12/01 09:37:25;;;;;;;22.45;11.55;;;;;;;7.71;100.00;99139.44;5075794;28;20024;-47
2021/12/01 09:39:50;;;;;;;24.50;10.07;;;;;;;7.61;100.00;99145.84;5072132;28;20077;-48
2021/12/01 09:42:15;;;;;;;23.75;4.10;;;;;;;7.41;100.00;99166.81;5074528;28;20119;-44
2021/12/01 09:44:41;;;;;;;21.92;3.17;;;;;;;7.20;100.00;99162.22;5062901;28;20032;-45
2021/12/01 09:47:07;;;;;;;18.73;3.53;;;;;;;7.10;100.00;99174.91;5056210;28;20116;-43
2021/12/01 09:49:32;;;;;;;21.98;3.42;;;;;;;7.05;100.00;99166.69;5057798;28;20045;-46
2021/12/01 09:51:58;;;;;;;23.10;3.53;;;;;;;6.98;100.00;99169.22;5056819;28;20067;-46
2021/12/01 09:54:23;;;;;;;24.65;3.97;;;;;;;6.98;100.00;99153.28;5057506;28;20019;-46
2021/12/01 09:56:49;;;;;;;25.67;3.35;;;;;;;7.03;100.00;99161.53;5055428;28;20032;-45
2021/12/01 09:59:14;;;;;;;20.98;2.92;;;;;;;7.07;100.00;99148.72;5056597;28;20032;-45
2021/12/01 10:01:40;;;;;;;23.58;3.60;;;;;;;7.10;100.00;99153.69;5055843;28;20222;-46
2021/12/01 10:04:06;;;;;;;27.05;3.20;;;;;;;7.12;100.00;99148.19;5056226;28;20012;-46
2021/12/01 10:06:32;;;;;;;31.48;3.25;;;;;;;7.11;100.00;99142.03;5054665;28;20472;-48
2021/12/01 10:09:01;;;;;;;24.50;3.47;;;;;;;7.12;100.00;99134.94;5058413;28;20032;-45
2021/12/01 10:11:32;;;;;;;40.05;4.20;;;;;;;7.07;100.00;99138.94;5057863;28;20239;-46
2021/12/01 10:14:00;;;;;;;20.70;2.83;;;;;;;7.08;100.00;99137.94;5064102;28;20039;-47
2021/12/01 10:16:28;;;;;;;31.73;3.47;;;;;;;7.04;100.00;99143.78;5059795;28;20078;-46
2021/12/01 10:18:56;;;;;;;22.15;2.90;;;;;;;7.04;100.00;99149.94;5061176;28;20020;-45
2021/12/01 10:21:32;;;;;;;20.58;2.38;;;;;;;7.07;100.00;99140.78;5059369;28;20082;-44
2021/12/01 10:24:03;;;;;;;34.53;3.17;;;;;;;7.09;100.00;99150.22;5060276;28;20472;-45
2021/12/01 10:26:36;;;;;;;23.67;3.35;;;;;;;7.16;100.00;99154.78;5058815;28;20177;-44
2021/12/01 10:29:08;;;;;;;45.22;6.13;;;;;;;7.22;100.00;99154.88;5060339;28;20120;-45
2021/12/01 10:31:43;;;;;;;38.40;5.18;;;;;;;7.25;100.00;99159.84;5042447;28;20017;-45
2021/12/01 10:34:19;;;;;;;29.23;4.10;;;;;;;7.23;100.00;99167.16;5042859;28;20067;-48
2021/12/01 10:36:47;;;;;;;37.05;5.25;;;;;;;7.24;100.00;99152.06;5058762;28;20025;-43
2021/12/01 10:39:13;;;;;;;25.98;3.75;;;;;;;7.26;100.00;99177.44;5058781;28;20198;-44
2021/12/01 10:41:40;;;;;;;30.10;5.43;;;;;;;7.17;100.00;99151.94;5057124;28;20554;-48
2021/12/01 10:44:14;;;;;;;25.83;5.00;;;;;;;7.09;100.00;99162.66;5060932;28;20032;-47
2021/12/01 10:46:49;;;;;;;35.03;7.43;;;;;;;7.04;100.00;99155.25;5060723;28;20016;-45
2021/12/01 10:49:16;;;;;;;25.38;3.70;;;;;;;7.05;100.00;99154.22;5060950;28;20101;-45
2021/12/01 10:51:43;;;;;;;19.83;3.70;;;;;;;7.03;100.00;99134.19;5061087;28;20028;-47
2021/12/01 10:54:19;;;;;;;18.63;2.63;;;;;;;7.00;100.00;99138.00;5059057;28;20079;-45
2021/12/01 10:57:05;;;;;;;18.50;2.70;;;;;;;7.00;100.00;99143.31;5060668;28;20104;-48
2021/12/01 10:59:43;;;;;;;17.23;2.30;;;;;;;6.98;100.00;99131.25;5060883;28;20352;-47
2021/12/01 11:02:10;;;;;;;24.23;4.07;;;;;;;7.00;100.00;99145.16;5064550;28;20028;-48
2021/12/01 11:04:45;;;;;;;16.52;3.97;;;;;;;7.01;100.00;99144.13;5058002;28;20489;-44
2021/12/01 11:07:29;;;;;;;18.85;2.50;;;;;;;7.07;100.00;99128.31;5065221;28;20050;-46
2021/12/01 11:10:18;;;;;;;13.40;2.40;;;;;;;7.20;100.00;99137.50;5055329;28;20026;-47
2021/12/01 11:12:53;;;;;;;15.30;2.08;;;;;;;7.22;100.00;99138.16;5074386;28;20084;-46
2021/12/01 11:15:21;;;;;;;13.13;1.70;;;;;;;7.25;100.00;99143.09;5060500;28;20029;-45
2021/12/01 11:17:47;;;;;;;18.33;1.85;;;;;;;7.27;100.00;99151.69;5072521;28;20076;-48
2021/12/01 11:20:31;;;;;;;10.65;1.83;;;;;;;7.31;100.00;99149.50;5076179;28;20382;-48
2021/12/01 11:23:21;;;;;;;16.15;1.90;;;;;;;7.31;100.00;99157.47;5061161;28;20492;-47
2021/12/01 11:25:53;;;;;;;13.15;2.10;;;;;;;7.25;100.00;99162.50;5061594;28;20032;-46
2021/12/01 11:28:21;;;;;;;20.92;2.17;;;;;;;7.30;100.00;99154.00;5034508;28;20024;-48